TimeMDT,TemperatureF,Dew PointF,Humidity,Sea Level PressureIn,VisibilityMPH,Wind Direction,Wind SpeedMPH,Gust SpeedMPH,PrecipitationIn,Events,Conditions,WindDirDegrees,DateUTC
12:16 AM,53.6,35.6,51,30.17,10.0,Calm,Calm,-,N/A,,Clear,0,2013-07-21 06:16:00
12:36 AM,51.8,33.8,50,30.18,10.0,Calm,Calm,-,N/A,,Clear,0,2013-07-21 06:36:00
12:56 AM,51.8,35.6,54,30.19,10.0,Calm,Calm,-,N/A,,Clear,0,2013-07-21 06:56:00
1:16 AM,51.8,35.6,54,30.19,10.0,Calm,Calm,-,N/A,,Clear,0,2013-07-21 07:16:00
1:36 AM,50.0,35.6,58,30.19,10.0,Calm,Calm,-,N/A,,Clear,0,2013-07-21 07:36:00
1:56 AM,50.0,35.6,58,30.19,10.0,ENE,3.5,-,N/A,,Clear,60,2013-07-21 07:56:00
2:16 AM,50.0,35.6,58,30.19,10.0,Calm,Calm,-,N/A,,Clear,0,2013-07-21 08:16:00
2:36 AM,50.0,37.4,62,30.20,10.0,Calm,Calm,-,N/A,,Clear,0,2013-07-21 08:36:00
2:55 AM,46.4,33.8,62,30.20,10.0,Calm,Calm,-,N/A,,Clear,0,2013-07-21 08:55:00
3:16 AM,48.2,37.4,66,30.20,10.0,Calm,Calm,-,N/A,,Clear,0,2013-07-21 09:16:00
3:36 AM,44.6,33.8,66,30.20,10.0,Calm,Calm,-,N/A,,Clear,0,2013-07-21 09:36:00
3:56 AM,46.4,35.6,66,30.21,10.0,Calm,Calm,-,N/A,,Clear,0,2013-07-21 09:56:00
4:16 AM,44.6,35.6,71,30.21,10.0,Calm,Calm,-,N/A,,Clear,0,2013-07-21 10:16:00
4:36 AM,44.6,35.6,71,30.21,10.0,Calm,Calm,-,N/A,,Clear,0,2013-07-21 10:36:00
4:56 AM,42.8,33.8,70,30.22,10.0,Calm,Calm,-,N/A,,Clear,0,2013-07-21 10:56:00
5:16 AM,42.8,33.8,70,30.22,10.0,Calm,Calm,-,N/A,,Clear,0,2013-07-21 11:16:00
5:36 AM,41.0,33.8,76,30.22,10.0,Calm,Calm,-,N/A,,Clear,0,2013-07-21 11:36:00
5:56 AM,41.0,32.0,70,30.22,10.0,Calm,Calm,-,N/A,,Clear,0,2013-07-21 11:56:00
6:16 AM,41.0,33.8,76,30.23,10.0,Calm,Calm,-,N/A,,Clear,0,2013-07-21 12:16:00
6:36 AM,42.8,33.8,70,30.24,10.0,Calm,Calm,-,N/A,,Clear,0,2013-07-21 12:36:00
6:56 AM,44.6,33.8,66,30.24,10.0,Calm,Calm,-,N/A,,Clear,0,2013-07-21 12:56:00
7:16 AM,48.2,37.4,66,30.24,10.0,Calm,Calm,-,N/A,,Clear,0,2013-07-21 13:16:00
7:36 AM,50.0,37.4,62,30.24,10.0,Calm,Calm,-,N/A,,Clear,0,2013-07-21 13:36:00
7:56 AM,51.8,37.4,58,30.25,10.0,Calm,Calm,-,N/A,,Clear,0,2013-07-21 13:56:00
8:16 AM,53.6,37.4,54,30.25,10.0,Calm,Calm,-,N/A,,Clear,0,2013-07-21 14:16:00
8:36 AM,55.4,35.6,47,30.25,10.0,Calm,Calm,-,N/A,,Clear,0,2013-07-21 14:36:00
8:56 AM,59.0,37.4,45,30.25,10.0,Calm,Calm,-,N/A,,Clear,0,2013-07-21 14:56:00
9:16 AM,60.8,37.4,42,30.25,10.0,Calm,Calm,-,N/A,,Clear,0,2013-07-21 15:16:00
9:36 AM,62.6,35.6,37,30.24,10.0,Calm,Calm,-,N/A,,Clear,0,2013-07-21 15:36:00
9:56 AM,66.2,37.4,35,30.24,10.0,Calm,Calm,-,N/A,,Clear,0,2013-07-21 15:56:00
10:16 AM,69.8,35.6,28,30.23,10.0,Calm,Calm,-,N/A,,Clear,0,2013-07-21 16:16:00
10:35 AM,69.8,37.4,31,30.22,10.0,Calm,Calm,-,N/A,,Clear,0,2013-07-21 16:35:00
10:56 AM,73.4,35.6,25,30.22,10.0,Calm,Calm,-,N/A,,Clear,0,2013-07-21 16:56:00
11:16 AM,77.0,33.8,21,30.21,10.0,Calm,Calm,-,N/A,,Clear,0,2013-07-21 17:16:00
11:36 AM,78.8,33.8,20,30.21,10.0,ESE,3.5,-,N/A,,Clear,110,2013-07-21 17:36:00
11:56 AM,80.6,19.4,10,30.20,10.0,SE,4.6,-,N/A,,Clear,140,2013-07-21 17:56:00
12:16 PM,82.4,17.6,9,30.20,10.0,North,6.9,-,N/A,,Clear,350,2013-07-21 18:16:00
12:36 PM,87.8,14.0,6,30.19,10.0,NNW,5.8,-,N/A,,Clear,340,2013-07-21 18:36:00
12:55 PM,84.2,12.2,7,30.19,10.0,North,10.4,17.3,N/A,,Clear,350,2013-07-21 18:55:00
1:16 PM,87.8,12.2,6,30.17,10.0,North,20.7,24.2,N/A,,Clear,350,2013-07-21 19:16:00
1:36 PM,87.8,5.0,4,30.17,10.0,NW,16.1,19.6,N/A,,Clear,320,2013-07-21 19:36:00
1:56 PM,89.6,5.0,4,30.18,10.0,NW,12.7,20.7,N/A,,Clear,310,2013-07-21 19:56:00
2:16 PM,89.6,8.6,5,30.17,10.0,North,9.2,-,N/A,,Clear,350,2013-07-21 20:16:00
2:35 PM,89.6,5.0,4,30.17,10.0,NNW,16.1,20.7,N/A,,Clear,330,2013-07-21 20:35:00
2:56 PM,89.6,5.0,4,30.16,10.0,NNW,11.5,19.6,N/A,,Clear,340,2013-07-21 20:56:00
3:16 PM,89.6,8.6,5,30.16,10.0,NW,9.2,23.0,N/A,,Clear,310,2013-07-21 21:16:00
3:36 PM,86.0,10.4,6,30.16,10.0,NW,6.9,20.7,N/A,,Clear,310,2013-07-21 21:36:00
3:56 PM,89.6,10.4,5,30.16,10.0,North,12.7,17.3,N/A,,Clear,350,2013-07-21 21:56:00
4:16 PM,89.6,6.8,4,30.15,10.0,North,12.7,23.0,N/A,,Clear,360,2013-07-21 22:16:00
4:36 PM,86.0,5.0,5,30.15,10.0,North,11.5,19.6,N/A,,Clear,350,2013-07-21 22:36:00
4:56 PM,87.8,8.6,5,30.14,10.0,NW,6.9,17.3,N/A,,Clear,320,2013-07-21 22:56:00
5:15 PM,89.6,5.0,4,30.14,10.0,West,11.5,17.3,N/A,,Clear,280,2013-07-21 23:15:00
5:36 PM,89.6,8.6,5,30.14,10.0,NW,8.1,-,N/A,,Clear,310,2013-07-21 23:36:00
5:56 PM,89.6,5.0,4,30.14,10.0,North,5.8,-,N/A,,Clear,360,2013-07-21 23:56:00
6:16 PM,87.8,6.8,5,30.14,10.0,NW,4.6,-,N/A,,Clear,310,2013-07-22 00:16:00
6:36 PM,89.6,5.0,4,30.13,10.0,NW,9.2,-,N/A,,Clear,310,2013-07-22 00:36:00
6:56 PM,87.8,6.8,5,30.13,10.0,WNW,6.9,-,N/A,,Clear,300,2013-07-22 00:56:00
7:16 PM,82.4,8.6,6,30.14,10.0,NNW,5.8,-,N/A,,Clear,330,2013-07-22 01:16:00
7:36 PM,80.6,10.4,7,30.14,10.0,WNW,4.6,-,N/A,,Clear,290,2013-07-22 01:36:00
7:56 PM,78.8,12.2,8,30.14,10.0,WNW,3.5,-,N/A,,Clear,290,2013-07-22 01:56:00
8:16 PM,73.4,30.2,20,30.15,10.0,West,4.6,-,N/A,,Clear,270,2013-07-22 02:16:00
8:35 PM,73.4,28.4,19,30.16,10.0,Calm,Calm,-,N/A,,Clear,0,2013-07-22 02:35:00
8:56 PM,71.6,23.0,16,30.16,10.0,Calm,Calm,-,N/A,,Clear,0,2013-07-22 02:56:00
9:16 PM,69.8,23.0,17,30.16,10.0,Calm,Calm,-,N/A,,Clear,0,2013-07-22 03:16:00
9:36 PM,68.0,23.0,18,30.16,10.0,North,3.5,-,N/A,,Clear,360,2013-07-22 03:36:00
9:56 PM,64.4,21.2,19,30.17,10.0,Calm,Calm,-,N/A,,Clear,0,2013-07-22 03:56:00
10:16 PM,60.8,32.0,34,30.18,10.0,Calm,Calm,-,N/A,,Clear,0,2013-07-22 04:16:00
10:36 PM,60.8,32.0,34,30.19,10.0,North,3.5,-,N/A,,Clear,360,2013-07-22 04:36:00
10:56 PM,59.0,35.6,42,30.19,10.0,South,3.5,-,N/A,,Clear,170,2013-07-22 04:56:00
11:16 PM,59.0,35.6,42,30.20,10.0,SSW,4.6,-,N/A,,Clear,210,2013-07-22 05:16:00
11:36 PM,59.0,32.0,36,30.20,10.0,Calm,Calm,-,N/A,,Clear,0,2013-07-22 05:36:00
11:56 PM,59.0,32.0,36,30.20,10.0,Calm,Calm,-,N/A,,Clear,0,2013-07-22 05:56:00